Time;durP1;ratioP1;P1;durP2;ratioP2;P2;SDS_P1;SDS_P2;PMS_P1;PMS_P2;Temp;Humidity;BMP_temperature;BMP_pressure;BME280_temperature;BME280_humidity;BME280_pressure;Samples;Min_cycle;Max_cycle;Signal;HPM_P1;HPM_P2
2021/03/20 00:00:28;;;;;;;;;;;;;;;21.37;35.71;103005.63;3103294;28;113971;-56
2021/03/20 00:02:00;;;;;;;;;;;;;;;21.36;35.66;103001.09;3120537;27;113922;-56
2021/03/20 00:03:31;;;;;;;;;;;;;;;21.35;35.56;103004.19;3101191;27;114075;-55
2021/03/20 00:05:03;;;;;;;;;;;;;;;21.34;35.60;103000.53;3093497;28;114113;-56
2021/03/20 00:06:39;;;;;;;;;;;;;;;21.33;35.80;103000.78;3107537;28;115311;-54
2021/03/20 00:08:11;;;;;;;;;;;;;;;21.31;35.79;103001.03;3102372;28;116176;-54
2021/03/20 00:09:42;;;;;;;;;;;;;;;21.31;35.65;103001.03;3099669;28;115185;-54
2021/03/20 00:11:13;;;;;;;;;;;;;;;21.31;35.71;102998.22;3092010;28;114997;-56
2021/03/20 00:12:46;;;;;;;;;;;;;;;21.29;35.77;103000.47;3092152;28;115750;-54
2021/03/20 00:14:19;;;;;;;;;;;;;;;21.28;35.80;102998.78;3091804;28;114894;-54
2021/03/20 00:15:56;;;;;;;;;;;;;;;21.27;35.67;102999.88;3097689;28;115525;-55
2021/03/20 00:17:27;;;;;;;;;;;;;;;21.24;35.78;102991.97;3090727;28;115462;-56
2021/03/20 00:18:58;;;;;;;;;;;;;;;21.25;35.92;102993.69;3099338;28;115234;-55
2021/03/20 00:20:31;;;;;;;;;;;;;;;21.23;36.05;102990.28;3079439;28;115110;-55
2021/03/20 00:22:03;;;;;;;;;;;;;;;21.24;35.99;102997.59;3086814;28;115574;-56
2021/03/20 00:23:34;;;;;;;;;;;;;;;21.23;35.99;103001.53;3091180;28;115556;-55
2021/03/20 00:25:08;;;;;;;;;;;;;;;21.22;35.98;102999.81;3094326;28;115303;-56
2021/03/20 00:26:40;;;;;;;;;;;;;;;21.21;36.06;102998.13;3087434;28;114978;-54
2021/03/20 00:28:14;;;;;;;;;;;;;;;21.22;36.20;103005.44;3084840;28;115883;-55
2021/03/20 00:29:45;;;;;;;;;;;;;;;21.20;36.44;103004.88;3086360;28;115752;-55
2021/03/20 00:31:16;;;;;;;;;;;;;;;21.17;36.14;103003.41;3087756;28;115812;-56
2021/03/20 00:32:47;;;;;;;;;;;;;;;21.18;36.46;103005.13;3087761;28;115675;-56
2021/03/20 00:34:19;;;;;;;;;;;;;;;21.16;36.11;103004.56;3109678;27;115655;-55
2021/03/20 00:35:50;;;;;;;;;;;;;;;21.17;36.11;103011.00;3103968;28;115618;-56
2021/03/20 00:37:21;;;;;;;;;;;;;;;21.16;36.26;103006.50;3072730;28;116149;-54
2021/03/20 00:38:53;;;;;;;;;;;;;;;21.13;36.26;103007.00;3077327;28;115864;-56
2021/03/20 00:40:26;;;;;;;;;;;;;;;21.12;36.41;103006.13;3086793;28;116313;-55
2021/03/20 00:41:58;;;;;;;;;;;;;;;21.12;36.25;103008.94;3087938;28;115657;-54
2021/03/20 00:43:29;;;;;;;;;;;;;;;21.13;36.59;103012.63;3099295;28;115869;-54
2021/03/20 00:45:00;;;;;;;;;;;;;;;21.10;36.42;103015.94;3091212;28;115704;-55
2021/03/20 00:46:31;;;;;;;;;;;;;;;21.11;36.49;103012.03;3086814;28;115873;-55
2021/03/20 00:48:05;;;;;;;;;;;;;;;21.11;36.51;103009.22;3090075;28;116699;-54
2021/03/20 00:49:36;;;;;;;;;;;;;;;21.09;36.76;103012.28;3109521;27;113778;-55
2021/03/20 00:51:08;;;;;;;;;;;;;;;21.09;36.50;103014.25;3086890;28;113946;-54
2021/03/20 00:52:40;;;;;;;;;;;;;;;21.07;36.43;103008.06;3110643;27;114018;-56
2021/03/20 00:54:12;;;;;;;;;;;;;;;21.06;36.73;103007.19;3095697;28;113687;-56
2021/03/20 00:55:43;;;;;;;;;;;;;;;21.05;36.56;103011.09;3099136;28;114141;-55
2021/03/20 00:57:14;;;;;;;;;;;;;;;21.05;36.83;103018.69;3089920;28;114050;-55
2021/03/20 00:58:46;;;;;;;;;;;;;;;21.03;36.41;103018.94;3110558;27;113957;-54
2021/03/20 01:00:19;;;;;;;;;;;;;;;21.04;36.48;103017.84;3094587;28;113794;-54
2021/03/20 01:01:50;;;;;;;;;;;;;;;21.03;36.76;103020.94;3111057;27;113840;-56
2021/03/20 01:03:22;;;;;;;;;;;;;;;21.02;36.66;103017.25;3091941;28;113939;-55
2021/03/20 01:04:53;;;;;;;;;;;;;;;21.00;36.67;103019.47;3087043;28;113842;-54
2021/03/20 01:06:25;;;;;;;;;;;;;;;21.00;36.91;103013.00;3093998;28;114002;-55
2021/03/20 01:07:57;;;;;;;;;;;;;;;20.97;36.89;103011.56;3111694;27;113876;-56
2021/03/20 01:09:28;;;;;;;;;;;;;;;20.96;36.95;103017.44;3098021;27;114643;-56
2021/03/20 01:10:59;;;;;;;;;;;;;;;20.95;37.03;103010.97;3113072;27;113969;-54
2021/03/20 01:12:30;;;;;;;;;;;;;;;20.96;36.66;103006.22;3095566;27;115148;-55
2021/03/20 01:14:02;;;;;;;;;;;;;;;20.94;36.72;103008.44;3098120;28;114910;-54
2021/03/20 01:15:33;;;;;;;;;;;;;;;20.94;36.94;103011.25;3117261;27;115590;-55
2021/03/20 01:17:05;;;;;;;;;;;;;;;20.94;36.73;103005.63;3092178;28;115118;-54
2021/03/20 01:18:36;;;;;;;;;;;;;;;20.92;36.89;103013.47;3085305;28;115170;-55
2021/03/20 01:20:08;;;;;;;;;;;;;;;20.90;36.96;103010.91;3087922;28;115117;-55
2021/03/20 01:21:39;;;;;;;;;;;;;;;20.89;36.93;103022.44;3088299;28;115329;-56
2021/03/20 01:23:11;;;;;;;;;;;;;;;20.89;37.21;103016.81;3087686;28;115386;-56
2021/03/20 01:24:42;;;;;;;;;;;;;;;20.86;37.08;103019.00;3086364;28;116430;-56
2021/03/20 01:26:14;;;;;;;;;;;;;;;20.86;37.06;103016.19;3086882;28;115142;-56
2021/03/20 01:27:47;;;;;;;;;;;;;;;20.86;37.29;103026.59;3098176;28;115794;-55
2021/03/20 01:29:18;;;;;;;;;;;;;;;20.85;37.16;103025.72;3111155;27;115144;-56
2021/03/20 01:30:50;;;;;;;;;;;;;;;20.85;37.37;103024.88;3096730;28;115207;-56
2021/03/20 01:32:21;;;;;;;;;;;;;;;20.82;37.03;103017.84;3095921;28;115629;-56
2021/03/20 01:33:52;;;;;;;;;;;;;;;20.83;37.24;103011.13;3087466;28;115634;-55
2021/03/20 01:35:23;;;;;;;;;;;;;;;20.82;37.28;103017.84;3112497;27;116063;-56
2021/03/20 01:36:55;;;;;;;;;;;;;;;20.82;37.44;103016.97;3090278;28;116082;-53
2021/03/20 01:38:26;;;;;;;;;;;;;;;20.80;37.60;103025.66;3074556;28;115734;-56
2021/03/20 01:39:58;;;;;;;;;;;;;;;20.79;37.70;103014.69;3085685;28;115969;-55
2021/03/20 01:41:29;;;;;;;;;;;;;;;20.79;37.35;103015.56;3088348;28;115777;-56
2021/03/20 01:43:00;;;;;;;;;;;;;;;20.78;37.32;103005.41;3091803;28;115938;-54
2021/03/20 01:44:31;;;;;;;;;;;;;;;20.76;37.50;103004.81;3105143;28;115776;-56
2021/03/20 01:46:12;;;;;;;;;;;;;;;20.78;37.86;103010.19;3098004;28;116230;-57
2021/03/20 01:47:47;;;;;;;;;;;;;;;20.75;37.78;103010.72;3089135;28;115613;-55
2021/03/20 01:49:28;;;;;;;;;;;;;;;20.75;37.75;103014.38;3110627;27;115682;-55
2021/03/20 01:51:01;;;;;;;;;;;;;;;20.75;37.77;103010.72;3091542;28;114592;-56
2021/03/20 01:52:32;;;;;;;;;;;;;;;20.74;37.70;103004.25;3112878;27;115849;-56
2021/03/20 01:54:03;;;;;;;;;;;;;;;20.72;37.72;103012.06;3093537;28;115943;-55
2021/03/20 01:55:35;;;;;;;;;;;;;;;20.73;37.75;103007.31;3087316;28;113953;-56
2021/03/20 01:57:06;;;;;;;;;;;;;;;20.70;37.78;103003.06;3106130;28;113744;-55
2021/03/20 01:58:38;;;;;;;;;;;;;;;20.71;37.84;103009.53;3087966;28;113659;-56
2021/03/20 02:00:13;;;;;;;;;;;;;;;20.68;38.05;103010.91;3110987;28;116611;-54
2021/03/20 02:01:44;;;;;;;;;;;;;;;20.68;38.05;103004.41;3093787;27;113730;-56
2021/03/20 02:03:18;;;;;;;;;;;;;;;20.69;37.95;103011.75;3086537;28;113796;-54
2021/03/20 02:04:49;;;;;;;;;;;;;;;20.67;38.13;103008.38;3110407;27;113780;-56
2021/03/20 02:06:21;;;;;;;;;;;;;;;20.66;37.82;103015.94;3099281;27;113804;-56
2021/03/20 02:07:54;;;;;;;;;;;;;;;20.66;38.05;103015.94;3113437;27;114533;-54
2021/03/20 02:09:25;;;;;;;;;;;;;;;20.66;37.93;103012.28;3089922;28;113727;-56
2021/03/20 02:11:00;;;;;;;;;;;;;;;20.64;37.88;103015.34;3086742;28;113667;-56
2021/03/20 02:12:34;;;;;;;;;;;;;;;20.64;37.72;103009.72;3098515;28;114029;-54
2021/03/20 02:14:07;;;;;;;;;;;;;;;20.65;37.98;103007.75;3098506;28;113754;-55
2021/03/20 02:15:48;;;;;;;;;;;;;;;20.60;37.79;103005.72;3094594;28;113928;-56
2021/03/20 02:17:19;;;;;;;;;;;;;;;20.62;38.04;103011.94;3086920;28;115089;-57
2021/03/20 02:18:56;;;;;;;;;;;;;;;20.63;37.95;103007.16;3086476;28;115157;-54
2021/03/20 02:20:37;;;;;;;;;;;;;;;20.60;37.82;103013.31;3110863;27;115449;-56
2021/03/20 02:22:15;;;;;;;;;;;;;;;20.61;37.92;103010.25;3090769;28;115430;-55
2021/03/20 02:23:56;;;;;;;;;;;;;;;20.60;37.90;103011.34;3083680;28;115068;-55
2021/03/20 02:25:30;;;;;;;;;;;;;;;20.60;38.24;103013.31;3088199;28;114051;-55
2021/03/20 02:27:04;;;;;;;;;;;;;;;20.58;38.27;103007.94;3112618;27;115195;-56
2021/03/20 02:28:45;;;;;;;;;;;;;;;20.59;38.39;103011.59;3095398;28;115592;-56
2021/03/20 02:30:26;;;;;;;;;;;;;;;20.56;38.21;103012.13;3085090;28;115059;-55
2021/03/20 02:32:07;;;;;;;;;;;;;;;20.56;38.48;103003.69;3077772;28;115133;-56
2021/03/20 02:33:39;;;;;;;;;;;;;;;20.56;38.56;103012.13;3088074;28;114882;-55
2021/03/20 02:35:16;;;;;;;;;;;;;;;20.55;38.28;103005.66;3076607;28;115206;-54
2021/03/20 02:36:57;;;;;;;;;;;;;;;20.55;38.25;103004.78;3088990;28;115235;-56
2021/03/20 02:38:32;;;;;;;;;;;;;;;20.54;38.39;103008.69;3092985;28;115423;-55
2021/03/20 02:40:03;;;;;;;;;;;;;;;20.53;38.15;103002.25;3086430;28;114389;-55
2021/03/20 02:41:44;;;;;;;;;;;;;;;20.52;38.62;102999.72;3099005;28;115406;-56
2021/03/20 02:43:23;;;;;;;;;;;;;;;20.51;38.59;103000.81;3087728;28;115246;-56
2021/03/20 02:45:00;;;;;;;;;;;;;;;20.48;38.77;103002.19;3088541;28;115883;-54
2021/03/20 02:46:37;;;;;;;;;;;;;;;20.49;38.69;103000.22;3088818;28;116182;-56
2021/03/20 02:48:16;;;;;;;;;;;;;;;20.50;38.70;102993.47;3083104;28;115145;-55
2021/03/20 02:50:00;;;;;;;;;;;;;;;20.48;38.52;102990.97;3113589;27;115794;-56
2021/03/20 02:51:38;;;;;;;;;;;;;;;20.48;39.20;102992.91;3096907;27;116303;-54
2021/03/20 02:53:17;;;;;;;;;;;;;;;20.47;38.84;102988.41;3088970;28;116048;-57
2021/03/20 02:54:55;;;;;;;;;;;;;;;20.49;39.03;102989.81;3119154;27;115891;-55
2021/03/20 02:56:28;;;;;;;;;;;;;;;20.46;38.96;102992.31;3093084;28;115877;-55
2021/03/20 02:58:03;;;;;;;;;;;;;;;20.45;38.88;102979.38;3112491;27;115800;-54
2021/03/20 02:59:38;;;;;;;;;;;;;;;20.44;39.21;102986.97;3094194;28;114869;-55
2021/03/20 03:01:12;;;;;;;;;;;;;;;20.44;39.52;102983.31;3114804;28;115798;-55
2021/03/20 03:02:44;;;;;;;;;;;;;;;20.43;39.33;102979.66;3092554;28;114052;-55
2021/03/20 03:04:17;;;;;;;;;;;;;;;20.42;39.00;102981.59;3098188;28;114032;-57
2021/03/20 03:05:49;;;;;;;;;;;;;;;20.42;39.07;102975.97;3096469;28;113717;-56
2021/03/20 03:07:23;;;;;;;;;;;;;;;20.41;39.27;102981.84;3088753;28;113794;-55
2021/03/20 03:09:03;;;;;;;;;;;;;;;20.39;39.12;102976.50;3099161;28;113807;-55
2021/03/20 03:10:37;;;;;;;;;;;;;;;20.41;39.33;102981.84;3099714;28;115193;-57
2021/03/20 03:12:14;;;;;;;;;;;;;;;20.38;39.42;102980.41;3089940;28;113865;-56
2021/03/20 03:16:27;;;;;;;;;;;;;;;20.40;39.04;102975.38;3075640;28;113675;-55
2021/03/20 03:18:05;;;;;;;;;;;;;;;20.39;39.10;102970.03;3079513;28;113832;-54
2021/03/20 03:19:46;;;;;;;;;;;;;;;20.38;39.44;102971.16;3099489;28;113847;-55
2021/03/20 03:21:18;;;;;;;;;;;;;;;20.39;39.33;102981.28;3089879;28;113975;-55
2021/03/20 03:22:54;;;;;;;;;;;;;;;20.36;39.32;102979.81;3085042;28;113621;-56
2021/03/20 03:24:27;;;;;;;;;;;;;;;20.36;39.59;102979.81;3114182;27;113939;-55
2021/03/20 03:26:03;;;;;;;;;;;;;;;20.38;39.32;102976.75;3083153;28;113671;-57
2021/03/20 03:27:36;;;;;;;;;;;;;;;20.36;39.17;102979.81;3084257;28;115183;-55
2021/03/20 03:29:11;;;;;;;;;;;;;;;20.35;39.03;102977.28;3108176;27;115203;-55
2021/03/20 03:30:42;;;;;;;;;;;;;;;20.34;39.29;102990.47;3091193;28;115065;-57
2021/03/20 03:32:17;;;;;;;;;;;;;;;20.34;39.06;102987.66;3084432;28;115139;-54
2021/03/20 03:33:55;;;;;;;;;;;;;;;20.33;39.35;102982.28;3111399;27;115139;-54
2021/03/20 03:35:33;;;;;;;;;;;;;;;20.33;39.50;102985.09;3096690;28;115442;-56
2021/03/20 03:37:04;;;;;;;;;;;;;;;20.33;39.33;102982.28;3088946;28;113969;-57
2021/03/20 03:38:42;;;;;;;;;;;;;;;20.33;39.34;102980.34;3100110;28;114906;-55
2021/03/20 03:40:33;;;;;;;;;;;;;;;20.31;39.07;102984.50;3118894;27;115007;-55
2021/03/20 03:42:04;;;;;;;;;;;;;;;20.31;39.30;102981.69;3093071;27;114495;-54
2021/03/20 03:43:35;;;;;;;;;;;;;;;20.29;38.95;102981.06;3112225;27;115741;-55
2021/03/20 03:45:09;;;;;;;;;;;;;;;20.29;39.03;102983.88;3095608;28;115224;-57
2021/03/20 03:46:42;;;;;;;;;;;;;;;20.30;39.40;102982.81;3105538;28;116139;-55
2021/03/20 03:48:15;;;;;;;;;;;;;;;20.29;39.40;102981.06;3085203;28;115235;-55
2021/03/20 03:49:47;;;;;;;;;;;;;;;20.26;39.08;102976.81;3104381;27;115912;-57
2021/03/20 03:51:18;;;;;;;;;;;;;;;20.26;39.39;102976.00;3094908;28;115883;-54
2021/03/20 03:52:50;;;;;;;;;;;;;;;20.25;39.35;102972.31;3099043;28;115918;-55
2021/03/20 03:54:21;;;;;;;;;;;;;;;20.25;39.71;102977.09;3087663;28;115663;-55
2021/03/20 03:55:56;;;;;;;;;;;;;;;20.24;39.52;102979.03;3079145;28;116365;-56
2021/03/20 03:57:28;;;;;;;;;;;;;;;20.25;39.50;102979.91;3097810;28;114906;-55
2021/03/20 03:59:09;;;;;;;;;;;;;;;20.23;39.38;102982.94;3099131;28;116318;-56
2021/03/20 04:00:43;;;;;;;;;;;;;;;20.23;39.40;102973.69;3090024;28;115808;-54
2021/03/20 04:02:21;;;;;;;;;;;;;;;20.22;39.38;102983.19;3087380;28;115765;-54
2021/03/20 04:03:56;;;;;;;;;;;;;;;20.20;39.44;102988.22;3087832;28;116288;-54
2021/03/20 04:05:35;;;;;;;;;;;;;;;20.20;39.61;102980.66;3090198;28;116074;-56
2021/03/20 04:07:24;;;;;;;;;;;;;;;20.17;39.38;102981.16;3115402;27;115807;-55
2021/03/20 04:09:15;;;;;;;;;;;;;;;20.19;39.40;102978.97;3089891;28;115707;-55
2021/03/20 04:10:51;;;;;;;;;;;;;;;20.18;39.60;102982.88;3097816;28;115806;-55
2021/03/20 04:12:35;;;;;;;;;;;;;;;20.18;39.47;102988.47;3085854;28;113799;-57
2021/03/20 04:14:10;;;;;;;;;;;;;;;20.16;39.42;102985.09;3103063;27;113702;-55
2021/03/20 04:15:41;;;;;;;;;;;;;;;20.16;39.71;102978.63;3087609;28;113966;-55
2021/03/20 04:17:19;;;;;;;;;;;;;;;20.16;39.53;102985.09;3085160;28;114974;-55
2021/03/20 04:18:53;;;;;;;;;;;;;;;20.15;39.50;102980.59;3086096;28;114732;-56
2021/03/20 04:20:27;;;;;;;;;;;;;;;20.14;39.53;102989.25;3083203;28;113943;-56
2021/03/20 04:22:08;;;;;;;;;;;;;;;20.14;39.70;102983.63;3106353;27;113833;-56
2021/03/20 04:23:42;;;;;;;;;;;;;;;20.12;39.77;102991.47;3085135;27;113665;-54
2021/03/20 04:25:23;;;;;;;;;;;;;;;20.12;39.70;102997.09;3108293;28;114105;-55
2021/03/20 04:27:00;;;;;;;;;;;;;;;20.12;39.62;102995.13;3084842;28;113801;-55
2021/03/20 04:28:39;;;;;;;;;;;;;;;20.11;39.80;102993.44;3098693;28;113775;-56
2021/03/20 04:30:14;;;;;;;;;;;;;;;20.09;39.88;102989.16;3089609;28;113772;-56
2021/03/20 04:31:49;;;;;;;;;;;;;;;20.10;40.05;102997.34;3109013;27;113855;-55
2021/03/20 04:33:25;;;;;;;;;;;;;;;20.10;39.75;102999.28;3104099;28;113805;-56
2021/03/20 04:34:59;;;;;;;;;;;;;;;20.08;39.91;102987.50;3097641;28;115255;-54
2021/03/20 04:36:34;;;;;;;;;;;;;;;20.08;40.18;102995.91;3078646;28;115268;-55
2021/03/20 04:38:06;;;;;;;;;;;;;;;20.06;39.89;102996.16;3108485;27;115139;-56
2021/03/20 04:39:41;;;;;;;;;;;;;;;20.07;39.87;102994.19;3086488;28;114276;-54
2021/03/20 04:41:18;;;;;;;;;;;;;;;20.05;40.22;102987.97;3100333;27;116025;-56
2021/03/20 04:42:50;;;;;;;;;;;;;;;20.05;40.05;102987.97;3089185;28;115825;-54
2021/03/20 04:44:22;;;;;;;;;;;;;;;20.05;40.09;102987.97;3085727;28;115495;-54
2021/03/20 04:46:00;;;;;;;;;;;;;;;20.04;39.98;102983.47;3075448;28;115010;-54
2021/03/20 04:47:34;;;;;;;;;;;;;;;20.03;40.28;102981.78;3087251;28;115692;-53
2021/03/20 04:49:10;;;;;;;;;;;;;;;20.03;40.29;102981.78;3120266;27;117065;-55
2021/03/20 04:50:43;;;;;;;;;;;;;;;20.04;40.06;102980.66;3101481;28;115343;-55
2021/03/20 04:52:18;;;;;;;;;;;;;;;20.01;40.33;102984.84;3116594;27;115534;-56
2021/03/20 04:53:50;;;;;;;;;;;;;;;20.00;40.19;102980.31;3087282;28;115117;-55
2021/03/20 04:55:22;;;;;;;;;;;;;;;19.99;40.34;102981.41;3089931;28;114713;-54
2021/03/20 04:57:03;;;;;;;;;;;;;;;19.99;40.39;102981.41;3098666;28;115876;-54
2021/03/20 04:58:44;;;;;;;;;;;;;;;19.97;40.41;102973.28;3086688;28;115876;-56
2021/03/20 05:00:15;;;;;;;;;;;;;;;19.97;40.08;102978.03;3098822;28;115865;-55
2021/03/20 05:01:49;;;;;;;;;;;;;;;19.95;40.09;102975.47;3091226;28;115846;-56
2021/03/20 05:03:26;;;;;;;;;;;;;;;19.95;40.22;102972.69;3098375;28;115786;-54
2021/03/20 05:05:01;;;;;;;;;;;;;;;19.93;40.27;102966.47;3089661;28;115825;-54
2021/03/20 05:06:33;;;;;;;;;;;;;;;19.96;40.26;102968.78;3108670;28;116649;-56
2021/03/20 05:08:07;;;;;;;;;;;;;;;19.94;40.50;102973.78;3098975;28;116273;-54
2021/03/20 05:09:38;;;;;;;;;;;;;;;19.94;40.70;102964.53;3106808;28;116183;-55
2021/03/20 05:11:22;;;;;;;;;;;;;;;19.93;40.40;102972.09;3101379;27;116026;-56
2021/03/20 05:12:54;;;;;;;;;;;;;;;19.92;40.65;102976.00;3088860;28;116152;-56
2021/03/20 05:14:35;;;;;;;;;;;;;;;19.92;40.53;102975.16;3087040;28;115869;-56
2021/03/20 05:16:16;;;;;;;;;;;;;;;19.91;40.56;102971.50;3086878;28;115925;-54
2021/03/20 05:17:47;;;;;;;;;;;;;;;19.92;40.54;102964.78;3086874;28;115691;-55
2021/03/20 05:19:20;;;;;;;;;;;;;;;19.91;40.46;102967.81;3089690;28;115498;-56
2021/03/20 05:20:51;;;;;;;;;;;;;;;19.89;40.37;102964.44;3086900;28;113656;-56
2021/03/20 05:22:32;;;;;;;;;;;;;;;19.89;40.38;102967.25;3111027;27;113679;-55
2021/03/20 05:24:03;;;;;;;;;;;;;;;19.90;40.28;102972.59;3092532;28;113700;-57
2021/03/20 05:25:34;;;;;;;;;;;;;;;19.88;40.39;102969.19;3087213;28;113993;-55
2021/03/20 05:27:09;;;;;;;;;;;;;;;19.88;40.55;102973.97;3086047;28;114067;-56
2021/03/20 05:28:40;;;;;;;;;;;;;;;19.87;40.60;102975.06;3110888;27;113768;-56
2021/03/20 05:30:12;;;;;;;;;;;;;;;19.87;40.38;102973.09;3102857;28;113758;-55
2021/03/20 05:31:44;;;;;;;;;;;;;;;19.87;40.42;102969.44;3094150;28;115125;-56
2021/03/20 05:33:15;;;;;;;;;;;;;;;19.86;40.43;102968.59;3107856;28;113981;-56
2021/03/20 05:34:46;;;;;;;;;;;;;;;19.87;40.40;102973.09;3089735;28;113903;-54
2021/03/20 05:36:18;;;;;;;;;;;;;;;19.84;40.65;102976.44;3088385;28;114039;-56
2021/03/20 05:37:49;;;;;;;;;;;;;;;19.84;40.56;102979.25;3092358;28;114285;-55
2021/03/20 05:39:21;;;;;;;;;;;;;;;19.84;40.36;102981.19;3097298;28;114166;-54
2021/03/20 05:40:58;;;;;;;;;;;;;;;19.82;40.52;102981.44;3101171;28;113957;-56
2021/03/20 05:42:30;;;;;;;;;;;;;;;19.83;40.33;102990.69;3089783;28;115694;-56
2021/03/20 05:44:11;;;;;;;;;;;;;;;19.82;40.60;102984.25;3098666;28;115365;-56
2021/03/20 05:45:49;;;;;;;;;;;;;;;19.82;40.49;102978.63;3087526;28;115059;-56
2021/03/20 05:47:25;;;;;;;;;;;;;;;19.82;40.50;102980.56;3102583;28;115734;-55
2021/03/20 05:49:02;;;;;;;;;;;;;;;19.81;40.46;102978.88;3098338;28;115180;-54
2021/03/20 05:50:44;;;;;;;;;;;;;;;19.80;40.41;102978.03;3098408;28;115212;-54
2021/03/20 05:52:25;;;;;;;;;;;;;;;19.78;40.43;102977.44;3098427;28;115115;-56
2021/03/20 05:54:06;;;;;;;;;;;;;;;19.79;40.31;102972.69;3088781;28;114977;-55
2021/03/20 05:55:47;;;;;;;;;;;;;;;19.78;40.30;102976.59;3088501;28;114512;-56
2021/03/20 05:57:28;;;;;;;;;;;;;;;19.77;40.21;102978.53;3090399;28;115067;-56
2021/03/20 05:59:04;;;;;;;;;;;;;;;19.75;40.46;102975.16;3109362;27;115028;-56
2021/03/20 06:00:44;;;;;;;;;;;;;;;19.75;40.14;102974.28;3107733;28;115592;-56
2021/03/20 06:02:25;;;;;;;;;;;;;;;19.74;40.29;102981.84;3101772;28;115215;-56
2021/03/20 06:04:00;;;;;;;;;;;;;;;19.72;40.39;102978.44;3107550;28;113920;-55
2021/03/20 06:05:32;;;;;;;;;;;;;;;19.73;40.30;102982.94;3089747;28;114722;-55
2021/03/20 06:07:03;;;;;;;;;;;;;;;19.73;40.19;102984.91;3085892;28;115833;-54
2021/03/20 06:08:36;;;;;;;;;;;;;;;19.72;40.21;102984.06;3086138;28;116249;-55
2021/03/20 06:10:07;;;;;;;;;;;;;;;19.70;40.42;102989.06;3100043;28;115870;-54
2021/03/20 06:11:51;;;;;;;;;;;;;;;19.70;40.14;102989.06;3102004;28;114917;-55
2021/03/20 06:13:32;;;;;;;;;;;;;;;19.70;40.34;102991.03;3081031;28;115897;-55
2021/03/20 06:15:13;;;;;;;;;;;;;;;19.70;40.17;102999.44;3097726;28;115282;-56
2021/03/20 06:16:55;;;;;;;;;;;;;;;19.68;40.50;103002.50;3085841;28;115698;-55
2021/03/20 06:18:36;;;;;;;;;;;;;;;19.68;40.20;102994.06;3080521;28;115721;-55
2021/03/20 06:20:17;;;;;;;;;;;;;;;19.67;40.65;102997.16;3088478;28;115766;-56
2021/03/20 06:21:48;;;;;;;;;;;;;;;19.66;40.58;102996.31;3098807;27;116069;-54
2021/03/20 06:23:22;;;;;;;;;;;;;;;19.66;40.27;102998.25;3094854;27;115656;-56
2021/03/20 06:24:54;;;;;;;;;;;;;;;19.66;40.46;103001.06;3110328;27;115802;-56
2021/03/20 06:26:28;;;;;;;;;;;;;;;19.65;40.54;103003.00;3099053;27;115727;-55
2021/03/20 06:28:00;;;;;;;;;;;;;;;19.65;40.66;103000.19;3090175;28;113813;-54
2021/03/20 06:29:33;;;;;;;;;;;;;;;19.65;40.25;103002.16;3100243;28;113811;-56
2021/03/20 06:31:07;;;;;;;;;;;;;;;19.64;40.40;102992.03;3085422;28;114081;-55
2021/03/20 06:32:42;;;;;;;;;;;;;;;19.62;40.32;103000.72;3106079;27;115839;-56
2021/03/20 06:34:15;;;;;;;;;;;;;;;19.62;40.57;102999.88;3099794;28;114234;-55
2021/03/20 06:35:49;;;;;;;;;;;;;;;19.62;40.26;102997.06;3089812;28;113988;-55
2021/03/20 06:37:23;;;;;;;;;;;;;;;19.61;40.29;102993.41;3090586;28;114032;-56
2021/03/20 06:38:56;;;;;;;;;;;;;;;19.60;40.30;102996.44;3098741;28;113734;-55
2021/03/20 06:40:27;;;;;;;;;;;;;;;19.59;40.14;102997.53;3089947;28;113999;-55
2021/03/20 06:42:02;;;;;;;;;;;;;;;19.58;40.56;102998.66;3099375;27;113854;-54
2021/03/20 06:43:37;;;;;;;;;;;;;;;19.58;40.43;102998.66;3106011;27;113832;-56
2021/03/20 06:45:18;;;;;;;;;;;;;;;19.56;40.42;103004.53;3106615;27;114212;-55
2021/03/20 06:46:50;;;;;;;;;;;;;;;19.57;40.44;102997.81;3092457;27;113849;-55
2021/03/20 06:48:23;;;;;;;;;;;;;;;19.58;40.42;103002.28;3106682;27;113974;-55
2021/03/20 06:50:00;;;;;;;;;;;;;;;19.58;40.49;103005.09;3097872;28;113774;-56
2021/03/20 06:51:31;;;;;;;;;;;;;;;19.58;40.32;103002.28;3096157;28;114101;-55
2021/03/20 06:53:04;;;;;;;;;;;;;;;19.67;40.50;102994.34;3092286;28;115161;-55
2021/03/20 06:54:35;;;;;;;;;;;;;;;19.68;40.29;102998.84;3077595;28;114060;-56
2021/03/20 06:56:08;;;;;;;;;;;;;;;19.70;40.30;103000.28;3082972;28;115803;-54
2021/03/20 06:57:39;;;;;;;;;;;;;;;19.72;40.55;103003.69;3096803;28;115152;-56
2021/03/20 06:59:11;;;;;;;;;;;;;;;19.75;40.31;102994.78;3089099;28;115807;-55
2021/03/20 07:00:43;;;;;;;;;;;;;;;19.77;40.44;102995.38;3109970;28;114947;-55
2021/03/20 07:02:15;;;;;;;;;;;;;;;19.81;40.34;102992.88;3092945;27;115123;-56
2021/03/20 07:03:48;;;;;;;;;;;;;;;19.84;40.41;102992.41;3110087;28;115298;-56
2021/03/20 07:05:25;;;;;;;;;;;;;;;19.87;40.62;102987.13;3093900;28;115026;-55
2021/03/20 07:07:03;;;;;;;;;;;;;;;19.90;40.76;102986.59;3086260;28;115204;-56
2021/03/20 07:08:38;;;;;;;;;;;;;;;19.96;40.85;102994.03;3087259;28;115068;-56
2021/03/20 07:10:15;;;;;;;;;;;;;;;20.01;40.86;102987.66;3088595;28;114001;-56
2021/03/20 07:11:56;;;;;;;;;;;;;;;20.06;40.79;102993.34;3092245;28;116249;-55
2021/03/20 07:13:29;;;;;;;;;;;;;;;20.12;40.79;102988.66;3088143;28;115818;-56
2021/03/20 07:15:00;;;;;;;;;;;;;;;20.17;40.76;102997.19;3088327;28;117511;-56
2021/03/20 07:16:48;;;;;;;;;;;;;;;20.21;40.86;102993.59;3089353;28;116009;-55
2021/03/20 07:18:24;;;;;;;;;;;;;;;20.28;41.14;102999.03;3101241;27;115719;-55
2021/03/20 07:20:05;;;;;;;;;;;;;;;20.34;41.03;103001.69;3103253;28;115732;-54
2021/03/20 07:21:37;;;;;;;;;;;;;;;20.39;41.00;103000.94;3080449;28;115600;-56
2021/03/20 07:23:12;;;;;;;;;;;;;;;20.45;40.59;102996.22;3112658;28;115963;-58
2021/03/20 07:24:44;;;;;;;;;;;;;;;20.50;40.53;103001.91;3092424;27;116021;-54
2021/03/20 07:26:15;;;;;;;;;;;;;;;20.54;40.53;103003.94;3090929;28;114983;-56
2021/03/20 07:27:47;;;;;;;;;;;;;;;20.59;40.27;102998.41;3087823;28;114756;-55
2021/03/20 07:29:18;;;;;;;;;;;;;;;20.65;40.06;103000.19;3099244;28;116051;-54
2021/03/20 07:31:04;;;;;;;;;;;;;;;20.70;40.00;102999.41;3111864;27;115833;-54
2021/03/20 07:32:38;;;;;;;;;;;;;;;20.76;39.85;102998.34;3091649;28;116456;-56
2021/03/20 07:34:13;;;;;;;;;;;;;;;20.80;39.77;102991.94;3114574;27;115671;-56
2021/03/20 07:35:44;;;;;;;;;;;;;;;20.85;39.53;102997.63;3104515;27;114035;-56
2021/03/20 07:37:19;;;;;;;;;;;;;;;20.90;39.58;102996.00;3090293;28;113943;-55
2021/03/20 07:39:00;;;;;;;;;;;;;;;20.96;39.73;103000.59;3097713;28;113966;-54
2021/03/20 07:40:32;;;;;;;;;;;;;;;21.02;39.31;102999.56;3097818;28;113782;-54
2021/03/20 07:42:06;;;;;;;;;;;;;;;21.05;39.18;103008.31;3111648;27;113866;-55
2021/03/20 07:43:40;;;;;;;;;;;;;;;21.10;38.92;103004.69;3093985;28;113819;-56
2021/03/20 07:45:13;;;;;;;;;;;;;;;21.14;38.90;103003.09;3086899;28;113801;-56
2021/03/20 07:46:44;;;;;;;;;;;;;;;21.18;38.75;103001.47;3087403;28;113866;-56
2021/03/20 07:48:15;;;;;;;;;;;;;;;21.21;38.83;103003.75;3111542;27;113926;-54
2021/03/20 07:49:46;;;;;;;;;;;;;;;21.26;39.51;103009.41;3095633;28;114000;-56
2021/03/20 07:51:18;;;;;;;;;;;;;;;21.30;38.99;103005.81;3088111;28;113781;-54
2021/03/20 07:52:59;;;;;;;;;;;;;;;21.35;38.78;103010.66;3089662;28;113802;-55
2021/03/20 07:54:30;;;;;;;;;;;;;;;21.39;39.28;103002.56;3081575;28;113877;-55
2021/03/20 07:56:04;;;;;;;;;;;;;;;21.43;38.84;103012.16;3121217;27;113784;-56
2021/03/20 07:57:35;;;;;;;;;;;;;;;21.47;38.64;103010.50;3098171;28;115099;-55
2021/03/20 07:59:14;;;;;;;;;;;;;;;21.51;38.79;103009.72;3093483;28;114097;-55
2021/03/20 08:00:46;;;;;;;;;;;;;;;21.55;38.79;103008.06;3085048;28;115090;-55
2021/03/20 08:02:27;;;;;;;;;;;;;;;21.59;38.76;103012.06;3087133;28;115264;-54